createdAt,value
2022-09-20T00:01:28.311Z,5.47
2022-09-20T00:03:58.824Z,7.85
2022-09-20T00:06:31.016Z,4.75
2022-09-20T00:08:59.570Z,4.72
2022-09-20T00:11:28.816Z,6.43
2022-09-20T00:13:58.232Z,5.75
2022-09-20T00:16:32.721Z,5.13
2022-09-20T00:19:03.813Z,5.18
2022-09-20T00:21:32.327Z,4.53
2022-09-20T00:23:59.603Z,3.05
2022-09-20T00:26:28.368Z,4.55
2022-09-20T00:28:55.978Z,3.90
2022-09-20T00:31:22.805Z,3.63
2022-09-20T00:34:08.269Z,6.60
2022-09-20T00:36:35.513Z,5.53
2022-09-20T00:39:03.514Z,4.13
2022-09-20T00:41:32.223Z,4.00
2022-09-20T00:44:00.624Z,3.97
2022-09-20T00:46:33.141Z,3.53
2022-09-20T00:49:15.508Z,4.38
2022-09-20T00:51:47.195Z,3.80
2022-09-20T00:54:20.323Z,5.57
2022-09-20T00:56:48.406Z,2.88
2022-09-20T00:59:20.454Z,4.03
2022-09-20T01:01:52.653Z,2.35
2022-09-20T01:04:22.979Z,3.35
2022-09-20T01:06:52.781Z,2.10
2022-09-20T01:09:19.901Z,3.00
2022-09-20T01:11:46.948Z,2.22
2022-09-20T01:14:15.922Z,2.28
2022-09-20T01:16:42.794Z,4.32
2022-09-20T01:19:34.463Z,5.40
2022-09-20T01:22:07.143Z,2.50
2022-09-20T01:24:49.501Z,3.45
2022-09-20T01:27:31.213Z,2.30
2022-09-20T01:30:12.143Z,2.22
2022-09-20T01:33:00.471Z,1.85
2022-09-20T01:35:28.790Z,4.82
2022-09-20T01:38:16.399Z,1.77
2022-09-20T01:41:23.787Z,3.88
2022-09-20T01:44:10.588Z,2.13
2022-09-20T01:46:37.911Z,2.65
2022-09-20T01:49:26.564Z,2.75
2022-09-20T01:52:14.344Z,1.77
2022-09-20T01:55:05.525Z,5.82
2022-09-20T01:57:47.750Z,1.50
2022-09-20T02:00:23.968Z,2.35
2022-09-20T02:03:22.826Z,7.38
2022-09-20T02:06:08.105Z,1.33
2022-09-20T02:09:08.697Z,1.15
2022-09-20T02:11:57.242Z,0.98
2022-09-20T02:14:36.155Z,1.50
2022-09-20T02:17:22.236Z,1.50
2022-09-20T02:20:08.642Z,0.95
2022-09-20T02:23:03.854Z,3.95
2022-09-20T02:25:55.157Z,2.35
2022-09-20T02:28:29.328Z,3.05
2022-09-20T02:31:35.128Z,1.40
2022-09-20T02:34:19.863Z,2.58
2022-09-20T02:36:59.419Z,2.08
2022-09-20T02:39:37.178Z,1.27
2022-09-20T02:42:35.321Z,2.25
2022-09-20T02:45:26.167Z,1.83
2022-09-20T02:47:56.429Z,3.05
2022-09-20T02:50:49.480Z,2.35
2022-09-20T02:53:19.319Z,1.15
2022-09-20T02:56:26.826Z,2.95
2022-09-20T02:59:16.920Z,1.77
2022-09-20T03:02:00.214Z,3.55
2022-09-20T03:04:38.645Z,6.60
2022-09-20T03:07:49.407Z,1.40
2022-09-20T03:10:21.534Z,3.55
2022-09-20T03:13:22.413Z,7.22
2022-09-20T03:16:11.076Z,6.10
2022-09-20T03:18:51.179Z,6.85
2022-09-20T03:21:33.313Z,3.80
2022-09-20T03:24:37.535Z,6.38
2022-09-20T03:27:17.300Z,3.50
2022-09-20T03:30:15.251Z,6.85
2022-09-20T03:33:05.708Z,1.92
2022-09-20T03:35:53.721Z,3.15
2022-09-20T03:38:38.584Z,2.28
2022-09-20T03:41:20.413Z,3.22
2022-09-20T03:43:50.144Z,4.43
2022-09-20T03:46:18.701Z,6.13
2022-09-20T03:49:13.301Z,1.42
2022-09-20T03:52:09.551Z,1.88
2022-09-20T03:54:48.247Z,1.13
2022-09-20T03:57:52.338Z,1.48
2022-09-20T04:00:34.190Z,1.13
2022-09-20T04:03:43.064Z,2.05
2022-09-20T04:06:30.977Z,1.67
2022-09-20T04:09:28.178Z,1.73
2022-09-20T04:12:12.848Z,2.38
2022-09-20T04:14:57.408Z,2.63
2022-09-20T04:17:33.281Z,1.40
2022-09-20T04:20:07.697Z,1.35
2022-09-20T04:22:34.991Z,1.10
2022-09-20T04:25:27.703Z,1.55
2022-09-20T04:28:02.014Z,1.92
2022-09-20T04:30:33.673Z,2.45
2022-09-20T04:33:16.516Z,0.77
2022-09-20T04:36:30.122Z,1.45
2022-09-20T04:39:03.300Z,1.33
2022-09-20T04:41:59.039Z,1.33
2022-09-20T04:44:47.583Z,1.70
2022-09-20T04:47:52.138Z,5.85
2022-09-20T04:51:00.565Z,15.27
2022-09-20T04:53:50.282Z,10.15
2022-09-20T04:56:26.894Z,13.70
2022-09-20T04:59:05.859Z,15.50
2022-09-20T05:02:30.276Z,18.88
2022-09-20T05:05:43.097Z,13.23
2022-09-20T05:08:44.063Z,13.35
2022-09-20T05:11:58.910Z,14.70
2022-09-20T05:14:57.493Z,21.55
2022-09-20T05:17:33.203Z,19.80
2022-09-20T05:20:24.383Z,17.10
2022-09-20T05:23:27.723Z,19.45
2022-09-20T05:26:24.816Z,17.33
2022-09-20T05:29:17.889Z,11.90
2022-09-20T05:32:11.961Z,11.77
2022-09-20T05:35:00.735Z,8.20
2022-09-20T05:37:42.504Z,7.05
2022-09-20T05:40:46.859Z,4.35
2022-09-20T05:43:26.999Z,7.70
2022-09-20T05:46:03.150Z,12.63
2022-09-20T05:48:53.849Z,8.60
2022-09-20T05:51:32.512Z,11.27
2022-09-20T05:54:28.420Z,9.00
2022-09-20T05:57:01.607Z,12.18
2022-09-20T05:59:49.142Z,9.05
2022-09-20T06:02:28.312Z,11.05
2022-09-20T06:05:20.183Z,9.40
2022-09-20T06:08:24.294Z,5.82
2022-09-20T06:11:09.267Z,4.43
2022-09-20T06:14:07.031Z,3.65
2022-09-20T06:16:52.917Z,2.80
2022-09-20T06:19:19.635Z,2.10
2022-09-20T06:21:51.124Z,3.58
2022-09-20T06:24:35.481Z,7.03
2022-09-20T06:27:10.718Z,3.83
2022-09-20T06:29:43.668Z,3.60
2022-09-20T06:32:10.845Z,3.58
2022-09-20T06:34:38.092Z,7.30
2022-09-20T06:37:46.850Z,4.47
2022-09-20T06:41:20.064Z,3.10
2022-09-20T06:43:48.567Z,3.13
2022-09-20T06:46:16.244Z,3.00
2022-09-20T06:48:43.149Z,2.90
2022-09-20T06:51:11.104Z,5.95
2022-09-20T06:53:40.981Z,2.85
2022-09-20T06:56:19.389Z,4.80
2022-09-20T06:58:46.758Z,2.28
2022-09-20T07:01:13.848Z,2.53
2022-09-20T07:03:42.137Z,3.53
2022-09-20T07:06:10.088Z,5.25
2022-09-20T07:08:36.797Z,2.97
2022-09-20T07:11:09.717Z,2.28
2022-09-20T07:13:36.617Z,2.80
2022-09-20T07:16:06.008Z,2.67
2022-09-20T07:18:33.600Z,1.70
2022-09-20T07:21:03.509Z,6.57
2022-09-20T07:23:31.318Z,4.22
2022-09-20T07:26:01.155Z,5.05
2022-09-20T07:28:30.189Z,7.82
2022-09-20T07:30:56.938Z,4.40
2022-09-20T07:33:25.011Z,2.28
2022-09-20T07:35:54.501Z,2.15
2022-09-20T07:38:22.730Z,1.25
2022-09-20T07:40:57.749Z,2.08
2022-09-20T07:43:26.761Z,1.17
2022-09-20T07:45:55.993Z,1.52
2022-09-20T07:48:25.158Z,3.05
2022-09-20T07:50:56.899Z,2.90
2022-09-20T07:53:24.090Z,5.32
2022-09-20T07:56:01.922Z,1.55
2022-09-20T07:58:30.876Z,2.30
2022-09-20T08:00:59.746Z,2.50
2022-09-20T08:03:29.038Z,3.75
2022-09-20T08:06:00.763Z,3.85
2022-09-20T08:08:31.634Z,2.78
2022-09-20T08:11:07.145Z,2.25
2022-09-20T08:16:31.028Z,1.90
2022-09-20T08:19:00.376Z,1.30
2022-09-20T08:21:31.547Z,1.50
2022-09-20T08:23:59.722Z,2.03
2022-09-20T08:26:29.308Z,5.30
2022-09-20T08:28:57.978Z,2.38
2022-09-20T08:31:27.676Z,1.70
2022-09-20T08:33:55.094Z,1.05
2022-09-20T08:36:24.908Z,3.22
2022-09-20T08:41:48.476Z,1.15
2022-09-20T08:44:45.036Z,1.70
2022-09-20T08:47:23.651Z,1.42
2022-09-20T08:49:56.980Z,2.03
2022-09-20T08:52:36.923Z,1.88
2022-09-20T08:55:27.962Z,1.48
2022-09-20T08:57:57.271Z,0.70
2022-09-20T09:00:33.764Z,1.58
2022-09-20T09:03:05.531Z,1.50
2022-09-20T09:05:38.971Z,1.27
2022-09-20T09:08:16.392Z,1.27
2022-09-20T09:10:54.087Z,4.60
2022-09-20T09:13:34.773Z,1.35
2022-09-20T09:16:09.943Z,1.45
2022-09-20T09:18:40.482Z,2.05
2022-09-20T09:21:09.383Z,1.90
2022-09-20T09:23:43.175Z,0.95
2022-09-20T09:26:17.853Z,1.45
2022-09-20T09:28:44.700Z,4.45
2022-09-20T09:31:28.280Z,1.10
2022-09-20T09:33:55.904Z,1.63
2022-09-20T09:36:25.705Z,2.15
2022-09-20T09:39:16.928Z,0.98
2022-09-20T09:41:44.414Z,1.95
2022-09-20T09:44:22.327Z,1.45
2022-09-20T09:46:53.630Z,1.75
2022-09-20T09:49:34.164Z,0.40
2022-09-20T09:52:18.300Z,1.23
2022-09-20T09:55:03.559Z,2.47
2022-09-20T09:58:15.993Z,2.47
2022-09-20T10:00:46.830Z,1.10
2022-09-20T10:03:33.333Z,4.05
2022-09-20T10:06:26.948Z,3.45
2022-09-20T10:09:05.513Z,1.77
2022-09-20T10:12:20.671Z,2.22
2022-09-20T10:15:28.111Z,2.67
2022-09-20T10:18:20.760Z,6.53
2022-09-20T10:21:11.883Z,1.52
2022-09-20T10:24:10.185Z,4.57
2022-09-20T10:27:18.675Z,0.17
2022-09-20T10:29:58.229Z,2.72
2022-09-20T10:32:31.528Z,2.50
2022-09-20T10:35:16.077Z,1.80
2022-09-20T10:37:58.078Z,2.70
2022-09-20T10:40:57.450Z,2.47
2022-09-20T10:43:53.182Z,0.20
2022-09-20T10:46:32.445Z,0.45
2022-09-20T10:49:16.677Z,2.78
2022-09-20T10:52:00.637Z,0.73
2022-09-20T10:54:58.439Z,1.10
2022-09-20T10:57:28.022Z,0.75
2022-09-20T11:00:18.921Z,0.70
2022-09-20T11:03:04.288Z,0.30
2022-09-20T11:06:00.467Z,3.45
2022-09-20T11:08:33.157Z,0.57
2022-09-20T11:11:32.877Z,0.57
2022-09-20T11:14:31.547Z,1.60
2022-09-20T11:17:11.982Z,1.33
2022-09-20T11:19:55.570Z,3.03
2022-09-20T11:22:29.645Z,0.82
2022-09-20T11:24:59.446Z,0.63
2022-09-20T11:27:44.708Z,0.73
2022-09-20T11:30:21.225Z,2.13
2022-09-20T11:33:14.749Z,0.60
2022-09-20T11:35:51.689Z,0.60
2022-09-20T11:38:41.468Z,0.80
2022-09-20T11:41:19.609Z,0.90
2022-09-20T11:43:47.863Z,0.60
2022-09-20T11:46:22.177Z,2.55
2022-09-20T11:49:00.245Z,1.52
2022-09-20T11:52:10.767Z,1.30
2022-09-20T11:54:52.440Z,1.80
2022-09-20T11:57:19.179Z,1.85
2022-09-20T11:59:55.838Z,0.85
2022-09-20T12:02:33.817Z,1.50
2022-09-20T12:05:02.010Z,1.83
2022-09-20T12:07:38.021Z,0.65
2022-09-20T12:10:20.151Z,0.20
2022-09-20T12:12:51.180Z,1.05
2022-09-20T12:15:24.013Z,0.68
2022-09-20T12:17:51.279Z,0.22
2022-09-20T12:20:36.336Z,0.57
2022-09-20T12:23:54.434Z,1.30
2022-09-20T12:26:21.571Z,0.63
2022-09-20T12:28:57.335Z,0.47
2022-09-20T12:31:31.815Z,0.88
2022-09-20T12:34:22.028Z,2.10
2022-09-20T12:36:54.601Z,0.75
2022-09-20T12:39:29.861Z,1.13
2022-09-20T12:42:03.340Z,0.73
2022-09-20T12:44:51.733Z,0.40
2022-09-20T12:47:23.361Z,0.57
2022-09-20T12:50:11.339Z,0.30
2022-09-20T12:52:57.191Z,1.10
2022-09-20T12:55:32.925Z,1.60
2022-09-20T12:58:14.706Z,2.25
2022-09-20T13:00:51.244Z,0.20
2022-09-20T13:03:57.375Z,1.60
2022-09-20T13:06:25.851Z,1.23
2022-09-20T13:08:52.576Z,0.60
2022-09-20T13:11:24.197Z,0.60
2022-09-20T13:14:14.594Z,0.95
2022-09-20T13:16:57.328Z,0.40
2022-09-20T13:19:30.496Z,0.50
2022-09-20T13:22:00.171Z,1.27
2022-09-20T13:24:29.775Z,0.13
2022-09-20T13:27:06.356Z,0.28
2022-09-20T13:29:38.945Z,0.77
2022-09-20T13:32:27.926Z,0.30
2022-09-20T13:35:10.137Z,1.30
2022-09-20T13:37:40.147Z,0.75
2022-09-20T13:40:07.186Z,0.80
2022-09-20T13:42:35.724Z,1.05
2022-09-20T13:45:04.275Z,2.92
2022-09-20T13:47:32.528Z,1.98
2022-09-20T13:50:21.047Z,1.75
2022-09-20T13:52:50.800Z,1.40
2022-09-20T13:55:35.984Z,3.40
2022-09-20T13:58:21.503Z,1.40
2022-09-20T14:01:01.091Z,2.13
2022-09-20T14:03:29.659Z,0.90
2022-09-20T14:06:00.481Z,1.08
2022-09-20T14:08:36.067Z,4.25
2022-09-20T14:11:16.646Z,1.70
2022-09-20T14:13:47.813Z,1.70
2022-09-20T14:16:18.521Z,1.35
2022-09-20T14:18:48.012Z,1.60
2022-09-20T14:21:21.865Z,1.25
2022-09-20T14:24:00.535Z,1.00
2022-09-20T14:26:33.556Z,1.30
2022-09-20T14:29:34.483Z,2.72
2022-09-20T14:32:09.605Z,1.25
2022-09-20T14:34:40.685Z,4.05
2022-09-20T14:37:18.026Z,7.00
2022-09-20T14:39:58.145Z,3.55
2022-09-20T14:42:42.866Z,2.75
2022-09-20T14:45:41.189Z,3.75
2022-09-20T14:48:11.718Z,3.08
2022-09-20T14:50:44.607Z,1.55
2022-09-20T14:53:11.291Z,1.98
2022-09-20T14:55:41.475Z,2.35
2022-09-20T14:58:14.288Z,1.27
2022-09-20T15:01:01.667Z,0.68
2022-09-20T15:03:44.647Z,1.02
2022-09-20T15:06:13.158Z,1.83
2022-09-20T15:08:46.186Z,0.75
2022-09-20T15:11:15.336Z,1.13
2022-09-20T15:13:42.196Z,1.40
2022-09-20T15:16:10.830Z,2.45
2022-09-20T15:18:42.305Z,1.58
2022-09-20T15:21:11.394Z,3.05
2022-09-20T15:23:39.650Z,11.88
2022-09-20T15:26:08.868Z,2.13
2022-09-20T15:28:35.591Z,2.60
2022-09-20T15:31:02.361Z,3.50
2022-09-20T15:33:31.976Z,3.90
2022-09-20T15:35:59.167Z,3.20
2022-09-20T15:38:27.066Z,1.42
2022-09-20T15:40:54.294Z,2.47
2022-09-20T15:43:26.226Z,3.97
2022-09-20T15:45:55.744Z,2.45
2022-09-20T15:48:25.496Z,3.75
2022-09-20T15:51:01.898Z,1.42
2022-09-20T15:53:33.608Z,2.63
2022-09-20T15:56:02.532Z,2.50
2022-09-20T15:58:36.351Z,5.43
2022-09-20T16:01:08.327Z,5.35
2022-09-20T16:03:36.696Z,3.90
2022-09-20T16:06:06.700Z,1.95
2022-09-20T16:08:35.099Z,1.65
2022-09-20T16:11:02.460Z,2.50
2022-09-20T16:13:29.691Z,4.32
2022-09-20T16:16:00.965Z,5.90
2022-09-20T16:18:47.355Z,4.47
2022-09-20T16:21:16.217Z,2.78
2022-09-20T16:23:48.456Z,5.10
2022-09-20T16:26:15.290Z,6.93
2022-09-20T16:28:47.286Z,4.45
2022-09-20T16:31:48.823Z,7.10
2022-09-20T16:34:21.990Z,3.08
2022-09-20T16:36:54.281Z,3.40
2022-09-20T16:39:26.230Z,2.55
2022-09-20T16:41:54.231Z,3.60
2022-09-20T16:44:21.124Z,2.47
2022-09-20T16:46:48.284Z,2.30
2022-09-20T16:49:16.855Z,4.05
2022-09-20T16:51:46.235Z,2.28
2022-09-20T16:54:15.109Z,7.43
2022-09-20T16:56:46.600Z,2.08
2022-09-20T16:59:15.837Z,4.72
2022-09-20T17:01:43.648Z,3.05
2022-09-20T17:04:14.078Z,5.88
2022-09-20T17:06:43.405Z,5.70
2022-09-20T17:09:11.053Z,3.70
2022-09-20T17:11:40.572Z,5.13
2022-09-20T17:14:09.088Z,4.47
2022-09-20T17:16:38.184Z,9.98
2022-09-20T17:19:09.408Z,7.05
2022-09-20T17:21:45.170Z,5.35
2022-09-20T17:24:13.794Z,11.85
2022-09-20T17:26:44.377Z,9.13
2022-09-20T17:29:14.037Z,11.88
2022-09-20T17:31:44.060Z,7.95
2022-09-20T17:34:13.340Z,11.65
2022-09-20T17:36:42.519Z,8.10
2022-09-20T17:39:12.196Z,8.60
2022-09-20T17:41:40.921Z,6.70
2022-09-20T17:44:12.004Z,6.75
2022-09-20T17:46:41.639Z,6.18
2022-09-20T17:49:10.911Z,4.25
2022-09-20T17:51:43.447Z,4.45
2022-09-20T17:54:14.389Z,6.20
2022-09-20T17:56:43.625Z,4.18
2022-09-20T17:59:12.397Z,8.63
2022-09-20T18:01:40.457Z,2.60
2022-09-20T18:04:08.832Z,2.70
2022-09-20T18:06:44.473Z,2.78
2022-09-20T18:09:15.678Z,3.05
2022-09-20T18:11:49.508Z,2.67
2022-09-20T18:14:19.283Z,3.78
2022-09-20T18:16:46.586Z,3.55
2022-09-20T18:19:16.706Z,2.65
2022-09-20T18:21:44.135Z,3.42
2022-09-20T18:24:12.252Z,2.22
2022-09-20T18:26:39.610Z,1.92
2022-09-20T18:29:18.222Z,4.05
2022-09-20T18:31:50.569Z,2.47
2022-09-20T18:34:23.288Z,7.40
2022-09-20T18:36:55.441Z,3.55
2022-09-20T18:39:32.492Z,2.03
2022-09-20T18:41:59.970Z,3.05
2022-09-20T18:44:28.227Z,5.07
2022-09-20T18:46:55.160Z,3.85
2022-09-20T18:49:22.401Z,5.38
2022-09-20T18:51:50.029Z,3.90
2022-09-20T18:54:18.916Z,4.25
2022-09-20T18:56:48.165Z,6.03
2022-09-20T18:59:21.342Z,5.80
2022-09-20T19:01:58.397Z,4.65
2022-09-20T19:04:43.156Z,4.68
2022-09-20T19:07:28.310Z,6.88
2022-09-20T19:10:26.313Z,3.25
2022-09-20T19:13:05.085Z,13.63
2022-09-20T19:15:43.413Z,8.52
2022-09-20T19:18:27.084Z,6.85
2022-09-20T19:21:23.938Z,6.65
2022-09-20T19:24:10.116Z,10.88
2022-09-20T19:26:38.714Z,11.40
2022-09-20T19:29:19.982Z,13.55
2022-09-20T19:31:53.609Z,8.90
2022-09-20T19:34:25.336Z,7.75
2022-09-20T19:37:18.622Z,7.80
2022-09-20T19:39:57.017Z,7.93
2022-09-20T19:42:37.712Z,7.22
2022-09-20T19:45:34.862Z,5.97
2022-09-20T19:48:37.153Z,4.32
2022-09-20T19:51:08.046Z,3.88
2022-09-20T19:53:35.510Z,9.13
2022-09-20T19:56:14.451Z,11.05
2022-09-20T19:58:43.235Z,7.38
2022-09-20T20:01:10.587Z,9.27
2022-09-20T20:03:37.605Z,7.90
2022-09-20T20:06:16.381Z,6.82
2022-09-20T20:08:58.992Z,10.32
2022-09-20T20:12:07.598Z,6.90
2022-09-20T20:14:50.249Z,7.65
2022-09-20T20:17:55.389Z,4.82
2022-09-20T20:20:25.103Z,2.70
2022-09-20T20:23:07.449Z,3.72
2022-09-20T20:25:59.067Z,3.33
2022-09-20T20:28:27.451Z,3.70
2022-09-20T20:30:57.871Z,3.05
2022-09-20T20:33:27.049Z,3.85
2022-09-20T20:35:56.241Z,3.67
2022-09-20T20:38:26.225Z,3.40
2022-09-20T20:41:05.560Z,9.77
2022-09-20T20:43:35.841Z,16.58
2022-09-20T20:46:07.731Z,9.35
2022-09-20T20:48:34.886Z,7.63
2022-09-20T20:51:10.498Z,9.25
2022-09-20T20:53:39.834Z,5.78
2022-09-20T20:56:09.506Z,6.93
2022-09-20T20:58:40.860Z,2.38
2022-09-20T21:01:12.594Z,7.63
2022-09-20T21:03:46.339Z,2.17
2022-09-20T21:06:14.861Z,5.03
2022-09-20T21:08:48.861Z,3.58
2022-09-20T21:11:24.474Z,3.00
2022-09-20T21:13:53.218Z,2.83
2022-09-20T21:16:22.982Z,3.55
2022-09-20T21:18:50.742Z,3.85
2022-09-20T21:21:44.617Z,1.50
2022-09-20T21:24:17.177Z,2.95
2022-09-20T21:26:45.658Z,5.30
2022-09-20T21:29:15.604Z,3.28
2022-09-20T21:31:44.579Z,3.08
2022-09-20T21:34:13.627Z,4.03
2022-09-20T21:36:46.963Z,2.92
2022-09-20T21:39:13.841Z,2.97
2022-09-20T21:41:40.919Z,2.10
2022-09-20T21:44:09.921Z,1.98
2022-09-20T21:46:41.334Z,3.40
2022-09-20T21:49:10.148Z,2.80
2022-09-20T21:51:38.757Z,2.67
2022-09-20T21:54:05.675Z,1.90
2022-09-20T21:56:35.837Z,2.63
2022-09-20T21:59:04.236Z,2.65
2022-09-20T22:01:37.091Z,3.92
2022-09-20T22:04:14.320Z,5.97
2022-09-20T22:06:42.804Z,5.72
2022-09-20T22:09:10.698Z,4.68
2022-09-20T22:11:42.907Z,8.35
2022-09-20T22:14:11.133Z,9.95
2022-09-20T22:16:40.168Z,6.95
2022-09-20T22:19:09.722Z,10.13
2022-09-20T22:21:43.226Z,4.57
2022-09-20T22:24:11.935Z,7.35
2022-09-20T22:26:41.275Z,7.65
2022-09-20T22:29:08.372Z,5.90
2022-09-20T22:31:38.905Z,7.25
2022-09-20T22:34:07.231Z,9.05
2022-09-20T22:36:38.863Z,8.70
2022-09-20T22:39:07.641Z,5.95
2022-09-20T22:41:35.267Z,7.85
2022-09-20T22:44:02.524Z,8.80
2022-09-20T22:46:30.455Z,6.47
2022-09-20T22:48:57.744Z,8.02
2022-09-20T22:51:30.778Z,7.85
2022-09-20T22:53:57.927Z,6.68
2022-09-20T22:56:30.491Z,6.45
2022-09-20T22:59:00.251Z,4.88
2022-09-20T23:01:29.665Z,5.60
2022-09-20T23:04:08.904Z,3.95
2022-09-20T23:06:38.973Z,6.35
2022-09-20T23:09:09.142Z,5.55
2022-09-20T23:11:36.345Z,6.68
2022-09-20T23:14:05.903Z,7.28
2022-09-20T23:16:35.558Z,5.10
2022-09-20T23:19:04.007Z,6.63
2022-09-20T23:21:31.305Z,7.30
2022-09-20T23:24:00.073Z,6.03
2022-09-20T23:26:29.731Z,6.10
2022-09-20T23:28:58.995Z,4.13
2022-09-20T23:31:28.284Z,7.22
2022-09-20T23:33:57.339Z,4.70
2022-09-20T23:36:25.430Z,4.85
2022-09-20T23:38:52.872Z,5.32
2022-09-20T23:41:21.830Z,5.18
2022-09-20T23:43:48.669Z,9.45
2022-09-20T23:46:17.191Z,4.85
2022-09-20T23:48:44.795Z,5.10
2022-09-20T23:51:13.755Z,5.05
2022-09-20T23:53:40.860Z,4.80
2022-09-20T23:56:08.097Z,5.20
2022-09-20T23:58:37.230Z,7.07
